^^
Saratoga-Weather Station Historical Data
Daily Summary for February 19, 2020 Units:  Metric    English   Both
Daily Weekly Monthly Yearly Custom
  High: Low: Average:
Temperature: 5.2 °C -0.3 °C 2.8 °C
Dew Point: 2.3 °C -1.1 °C 1.1 °C
Humidity: 96% 79% 89%
Wind Speed: 14.5km/h 0km/h 0.9km/h
Wind Gust: 17.7km/h - -
Wind- - South
Pressure: 1044.4 hPa 1030.5 hPa -
Precipitation: 0.2 mm    
Historical Graphs
 
 
Tabular Data for February 19, 2020
Time Temperature Dew Point Pressure Wind Wind Speed Wind Gust Humidity Rainfall Rate (Hourly) solar
00:04 0.4 °C -0.3 °C 1030.5 hPa Calm     95% 0.0 mm 0 W/m2
00:09 0.4 °C -0.3 °C 1030.5 hPa Calm   1.6 km/h 95% 0.0 mm 0 W/m2
00:14 0.4 °C -0.3 °C 1030.5 hPa Calm     95% 0.0 mm 0 W/m2
00:19 0.3 °C -0.4 °C 1030.5 hPa Calm     95% 0.0 mm 0 W/m2
00:25 0.3 °C -0.4 °C 1030.5 hPa Calm     95% 0.0 mm 0 W/m2
00:30 0.2 °C -0.5 °C 1030.5 hPa Calm     95% 0.0 mm 0 W/m2
00:35 0.2 °C -0.5 °C 1030.8 hPa Calm     95% 0.0 mm 0 W/m2
00:40 0.3 °C -0.3 °C 1030.8 hPa Calm     96% 0.0 mm 0 W/m2
00:45 0.4 °C -0.3 °C 1030.8 hPa Calm     95% 0.0 mm 0 W/m2
00:50 0.3 °C -0.4 °C 1030.8 hPa Calm     95% 0.0 mm 0 W/m2
00:55 0.2 °C -0.5 °C 1030.8 hPa Calm     95% 0.0 mm 0 W/m2
01:00 0.2 °C -0.4 °C 1030.8 hPa Calm   1.6 km/h 96% 0.0 mm 0 W/m2
01:05 0.2 °C -0.4 °C 1031.2 hPa Calm     96% 0.0 mm 0 W/m2
01:10 0.3 °C -0.3 °C 1031.2 hPa Calm   1.6 km/h 96% 0.0 mm 0 W/m2
01:15 0.4 °C -0.2 °C 1031.2 hPa Calm     96% 0.0 mm 0 W/m2
01:20 0.5 °C -0.1 °C 1031.2 hPa Calm     96% 0.0 mm 0 W/m2
01:25 0.7 °C 0.1 °C 1031.2 hPa Calm     96% 0.0 mm 0 W/m2
01:30 0.8 °C 0.2 °C 1031.2 hPa Calm     96% 0.0 mm 0 W/m2
01:35 0.9 °C 0.3 °C 1031.2 hPa Calm   1.6 km/h 96% 0.0 mm 0 W/m2
01:40 0.9 °C 0.3 °C 1031.5 hPa Calm     96% 0.0 mm 0 W/m2
01:45 0.9 °C 0.3 °C 1031.5 hPa Calm   1.6 km/h 96% 0.0 mm 0 W/m2
01:50 0.9 °C 0.2 °C 1031.5 hPa Calm   4.8 km/h 95% 0.0 mm 0 W/m2
01:55 1.1 °C 0.4 °C 1031.5 hPa Calm     95% 0.0 mm 0 W/m2
02:00 1.2 °C 0.5 °C 1031.5 hPa Calm     95% 0.0 mm 0 W/m2
02:05 1.1 °C 0.4 °C 1031.5 hPa Calm     95% 0.0 mm 0 W/m2
02:10 1.2 °C 0.5 °C 1031.2 hPa Calm     95% 0.0 mm 0 W/m2
02:15 1.1 °C 0.2 °C 1031.5 hPa Calm   1.6 km/h 94% 0.0 mm 0 W/m2
02:20 1.1 °C 0.2 °C 1031.5 hPa Calm     94% 0.0 mm 0 W/m2
02:25 1.2 °C 0.3 °C 1031.5 hPa Calm     94% 0.0 mm 0 W/m2
02:30 1.2 °C 0.3 °C 1031.5 hPa Calm     94% 0.0 mm 0 W/m2
02:35 1.2 °C 0.3 °C 1031.5 hPa Calm     94% 0.0 mm 0 W/m2
02:40 1.2 °C 0.3 °C 1031.5 hPa Calm     94% 0.0 mm 0 W/m2
02:45 1 °C 0 °C 1031.8 hPa Calm     93% 0.0 mm 0 W/m2
02:50 0.8 °C -0.2 °C 1031.8 hPa Calm     93% 0.0 mm 0 W/m2
02:55 0.5 °C -0.5 °C 1032.2 hPa Calm     93% 0.0 mm 0 W/m2
03:00 0.3 °C -0.7 °C 1032.2 hPa Calm     93% 0.0 mm 0 W/m2
03:05 0.2 °C -0.8 °C 1032.2 hPa Calm     93% 0.0 mm 0 W/m2
03:10 0 °C -1 °C 1032.2 hPa Calm     93% 0.0 mm 0 W/m2
03:15 -0.1 °C -0.9 °C 1032.2 hPa Calm     94% 0.0 mm 0 W/m2
03:20 -0.1 °C -0.9 °C 1032.2 hPa Calm     94% 0.0 mm 0 W/m2
03:25 -0.2 °C -1 °C 1032.2 hPa Calm     94% 0.0 mm 0 W/m2
03:30 -0.2 °C -1 °C 1032.5 hPa Calm     94% 0.0 mm 0 W/m2
03:35 -0.2 °C -1 °C 1032.5 hPa Calm     94% 0.0 mm 0 W/m2
03:40 -0.2 °C -1 °C 1032.5 hPa Calm     94% 0.0 mm 0 W/m2
03:45 -0.3 °C -1.1 °C 1032.5 hPa Calm     94% 0.0 mm 0 W/m2
03:50 -0.3 °C -1 °C 1032.5 hPa Calm     95% 0.0 mm 0 W/m2
03:55 -0.2 °C -0.9 °C 1032.5 hPa Calm     95% 0.0 mm 0 W/m2
04:00 -0.1 °C -0.8 °C 1032.5 hPa Calm     95% 0.0 mm 0 W/m2
04:05 0 °C -0.7 °C 1032.5 hPa Calm     95% 0.0 mm 0 W/m2
04:10 0 °C -0.7 °C 1032.5 hPa Calm     95% 0.0 mm 0 W/m2
04:15 -0.1 °C -0.8 °C 1032.5 hPa Calm     95% 0.0 mm 0 W/m2
04:20 -0.1 °C -0.8 °C 1032.5 hPa Calm     95% 0.0 mm 0 W/m2
04:25 -0.2 °C -0.9 °C 1032.8 hPa Calm     95% 0.0 mm 0 W/m2
04:31 -0.2 °C -0.9 °C 1032.8 hPa Calm     95% 0.0 mm 0 W/m2
04:36 -0.3 °C -1 °C 1032.8 hPa Calm     95% 0.0 mm 0 W/m2
04:41 0 °C -0.7 °C 1032.8 hPa Calm     95% 0.0 mm 0 W/m2
04:46 0.2 °C -0.5 °C 1032.8 hPa Calm   1.6 km/h 95% 0.0 mm 0 W/m2
04:51 0.3 °C -0.3 °C 1032.8 hPa Calm     96% 0.0 mm 0 W/m2
04:56 0.2 °C -0.5 °C 1032.8 hPa Calm     95% 0.0 mm 0 W/m2
05:01 0.2 °C -0.5 °C 1032.8 hPa Calm     95% 0.0 mm 0 W/m2
05:06 0.2 °C -0.5 °C 1033.2 hPa Calm   4.8 km/h 95% 0.0 mm 0 W/m2
05:11 0.4 °C -0.2 °C 1032.8 hPa Calm     96% 0.0 mm 0 W/m2
05:16 0.7 °C 0.1 °C 1032.8 hPa Calm     96% 0.0 mm 0 W/m2
05:21 0.8 °C 0.1 °C 1032.8 hPa Calm     95% 0.0 mm 0 W/m2
05:26 0.8 °C 0.1 °C 1033.2 hPa Calm     95% 0.0 mm 0 W/m2
05:31 0.9 °C 0.2 °C 1033.2 hPa Calm     95% 0.0 mm 0 W/m2
05:36 0.9 °C 0.2 °C 1033.2 hPa Calm     95% 0.0 mm 0 W/m2
05:41 0.8 °C 0.1 °C 1033.2 hPa Calm     95% 0.0 mm 0 W/m2
05:46 0.8 °C 0.1 °C 1033.2 hPa Calm     95% 0.0 mm 0 W/m2
05:51 0.9 °C 0.2 °C 1033.5 hPa Calm     95% 0.0 mm 0 W/m2
05:56 1.1 °C 0.4 °C 1033.5 hPa Calm     95% 0.0 mm 0 W/m2
06:01 1.3 °C 0.6 °C 1033.5 hPa Calm     95% 0.0 mm 0 W/m2
06:06 1.4 °C 0.5 °C 1033.5 hPa Calm     94% 0.0 mm 0 W/m2
06:11 1.6 °C 0.7 °C 1033.5 hPa Calm     94% 0.0 mm 0 W/m2
06:16 1.7 °C 0.8 °C 1033.5 hPa Calm     94% 0.0 mm 0 W/m2
06:21 1.8 °C 0.8 °C 1033.5 hPa Calm     93% 0.0 mm 0 W/m2
06:26 1.9 °C 0.9 °C 1033.5 hPa Calm     93% 0.0 mm 0 W/m2
06:31 1.8 °C 0.6 °C 1033.5 hPa Calm     92% 0.0 mm 0 W/m2
06:36 1.6 °C 0.3 °C 1033.9 hPa Calm     91% 0.0 mm 0 W/m2
06:41 1.2 °C -0.1 °C 1033.9 hPa Calm     91% 0.0 mm 0 W/m2
06:46 0.9 °C -0.3 °C 1033.9 hPa Calm     92% 0.0 mm 0 W/m2
06:52 0.8 °C -0.4 °C 1033.9 hPa Calm     92% 0.0 mm 0 W/m2
06:57 0.7 °C -0.5 °C 1033.9 hPa Calm     92% 0.0 mm 0 W/m2
07:02 0.6 °C -0.4 °C 1033.9 hPa Calm     93% 0.0 mm 0 W/m2
07:07 0.6 °C -0.4 °C 1033.9 hPa Calm     93% 0.0 mm 0 W/m2
07:12 0.7 °C -0.3 °C 1033.9 hPa Calm     93% 0.0 mm 0 W/m2
07:17 0.8 °C -0.1 °C 1033.9 hPa Calm     94% 0.0 mm 0 W/m2
07:22 1 °C 0.1 °C 1033.9 hPa Calm     94% 0.0 mm 0 W/m2
07:27 1.1 °C 0.2 °C 1033.9 hPa Calm     94% 0.0 mm 0 W/m2
07:32 1.2 °C 0.3 °C 1033.9 hPa Calm     94% 0.0 mm 0 W/m2
07:37 1.2 °C 0.3 °C 1033.9 hPa Calm     94% 0.0 mm 0 W/m2
07:42 1.1 °C 0.1 °C 1034.2 hPa Calm     93% 0.0 mm 0 W/m2
07:47 1 °C 0 °C 1034.2 hPa Calm     93% 0.0 mm 0 W/m2
07:52 1 °C 0.1 °C 1034.2 hPa Calm     94% 0.0 mm 0 W/m2
07:57 1.1 °C 0.2 °C 1034.2 hPa Calm     94% 0.0 mm 0 W/m2
08:02 1.2 °C 0.3 °C 1034.5 hPa Calm     94% 0.0 mm 0 W/m2
08:07 1.3 °C 0.4 °C 1034.5 hPa Calm     94% 0.0 mm 0 W/m2
08:12 1.4 °C 0.5 °C 1034.5 hPa Calm     94% 0.0 mm 0 W/m2
08:17 1.4 °C 0.4 °C 1034.5 hPa Calm     93% 0.0 mm 0 W/m2
08:22 1.4 °C 0.4 °C 1034.5 hPa Calm   1.6 km/h 93% 0.0 mm 0 W/m2
08:27 1.4 °C 0.4 °C 1034.5 hPa Calm     93% 0.0 mm 5 W/m2
08:32 1.4 °C 0.4 °C 1034.5 hPa Calm     93% 0.0 mm 5 W/m2
08:37 1.5 °C 0.5 °C 1034.9 hPa Calm     93% 0.0 mm 9 W/m2
08:42 1.6 °C 0.6 °C 1035.2 hPa Calm     93% 0.0 mm 12 W/m2
08:47 1.5 °C 0.5 °C 1035.2 hPa Calm     93% 0.0 mm 18 W/m2
08:52 1.5 °C 0.5 °C 1035.2 hPa Calm     93% 0.0 mm 19 W/m2
08:57 1.6 °C 0.6 °C 1035.2 hPa Calm     93% 0.0 mm 14 W/m2
09:02 1.4 °C 0.4 °C 1035.2 hPa Calm     93% 0.0 mm 16 W/m2
09:07 1.4 °C 0.4 °C 1035.2 hPa Calm     93% 0.0 mm 18 W/m2
09:12 1.4 °C 0.4 °C 1035.6 hPa Calm     93% 0.0 mm 21 W/m2
09:17 1.4 °C 0.4 °C 1035.6 hPa Calm     93% 0.0 mm 19 W/m2
09:22 1.3 °C 0.3 °C 1035.6 hPa Calm     93% 0.0 mm 19 W/m2
09:27 1.4 °C 0.4 °C 1035.6 hPa Calm     93% 0.0 mm 23 W/m2
09:32 1.3 °C 0.3 °C 1035.6 hPa Calm     93% 0.0 mm 32 W/m2
09:37 1.3 °C 0.3 °C 1035.6 hPa Calm     93% 0.0 mm 33 W/m2
09:42 1.2 °C 0.2 °C 1035.9 hPa Calm     93% 0.0 mm 33 W/m2
09:47 1.1 °C 0.1 °C 1035.9 hPa Calm     93% 0.0 mm 33 W/m2
09:52 0.9 °C -0.1 °C 1036.2 hPa Calm   1.6 km/h 93% 0.0 mm 44 W/m2
09:57 0.9 °C -0.1 °C 1036.2 hPa Calm     93% 0.0 mm 33 W/m2
10:02 0.9 °C 0 °C 1036.2 hPa Calm   1.6 km/h 94% 0.0 mm 35 W/m2
10:07 1.3 °C 0.4 °C 1036.2 hPa Calm     94% 0.0 mm 35 W/m2
10:12 1.6 °C 0.7 °C 1036.2 hPa Calm     94% 0.0 mm 35 W/m2
10:17 1.8 °C 0.9 °C 1036.2 hPa Calm     94% 0.0 mm 35 W/m2
10:22 2.1 °C 1.1 °C 1036.6 hPa Calm     93% 0.0 mm 39 W/m2
10:27 2.2 °C 1.2 °C 1036.6 hPa Calm   1.6 km/h 93% 0.0 mm 56 W/m2
10:32 2.3 °C 1.3 °C 1036.6 hPa Calm     93% 0.0 mm 58 W/m2
10:37 2.5 °C 1.3 °C 1036.9 hPa Calm     92% 0.2 mm 63 W/m2
10:42 2.6 °C 1.4 °C 1036.9 hPa Calm     92% 0.2 mm 65 W/m2
10:47 2.7 °C 1.5 °C 1036.9 hPa Calm     92% 0.2 mm 116 W/m2
10:52 2.9 °C 1.7 °C 1037.2 hPa Calm   1.6 km/h 92% 0.2 mm 88 W/m2
10:57 3 °C 1.7 °C 1037.2 hPa Calm     91% 0.2 mm 90 W/m2
11:02 3.2 °C 1.9 °C 1037.2 hPa Calm   1.6 km/h 91% 0.2 mm 125 W/m2
11:07 3.3 °C 1.8 °C 1037.6 hPa Calm   1.6 km/h 90% 0.2 mm 116 W/m2
11:13 3.6 °C 2.1 °C 1037.6 hPa Calm   1.6 km/h 90% 0.2 mm 118 W/m2
11:18 3.7 °C 2.1 °C 1037.6 hPa WNW 1.4 km/h 3.2 km/h 89% 0.2 mm 123 W/m2
11:23 3.8 °C 2 °C 1037.6 hPa NW 13 km/h 12.9 km/h 88% 0.2 mm 141 W/m2
11:28 3.9 °C 1.8 °C 1037.6 hPa NNE 3.2 km/h 9.7 km/h 86% 0.2 mm 141 W/m2
11:33 4.1 °C 2 °C 1037.6 hPa Calm   12.9 km/h 86% 0.2 mm 113 W/m2
11:38 4.1 °C 1.8 °C 1037.6 hPa Calm   11.3 km/h 85% 0.0 mm 56 W/m2
11:43 4.1 °C 1.8 °C 1037.6 hPa NNW 7.9 km/h 12.9 km/h 85% 0.0 mm 81 W/m2
11:48 4.1 °C 1.8 °C 1037.6 hPa WNW 1.4 km/h 11.3 km/h 85% 0.0 mm 54 W/m2
11:53 4.1 °C 1.8 °C 1037.6 hPa Calm   8 km/h 85% 0.0 mm 51 W/m2
11:58 4.2 °C 1.7 °C 1037.6 hPa Calm   3.2 km/h 84% 0.0 mm 44 W/m2
12:03 4.3 °C 2 °C 1037.6 hPa Calm   1.6 km/h 85% 0.0 mm 42 W/m2
12:08 4.3 °C 1.8 °C 1037.2 hPa West 1.4 km/h 6.4 km/h 84% 0.0 mm 44 W/m2
12:13 4.4 °C 1.8 °C 1037.2 hPa NW 7.9 km/h 17.7 km/h 83% 0.0 mm 67 W/m2
12:18 4.7 °C 2.1 °C 1037.6 hPa NNW 4.7 km/h 12.9 km/h 83% 0.0 mm 98 W/m2
12:23 4.7 °C 1.9 °C 1037.6 hPa NNW 9.7 km/h 17.7 km/h 82% 0.0 mm 109 W/m2
12:28 4.8 °C 2 °C 1037.6 hPa North 3.2 km/h 16.1 km/h 82% 0.0 mm 105 W/m2
12:33 4.8 °C 1.8 °C 1037.6 hPa North 7.9 km/h 12.9 km/h 81% 0.0 mm 67 W/m2
12:38 4.7 °C 1.7 °C 1037.6 hPa Calm   8 km/h 81% 0.0 mm 51 W/m2
12:43 4.6 °C 1.6 °C 1037.2 hPa NNE 3.2 km/h 4.8 km/h 81% 0.0 mm 53 W/m2
12:48 4.6 °C 1.6 °C 1037.2 hPa NNW 1.4 km/h 6.4 km/h 81% 0.0 mm 54 W/m2
12:53 4.6 °C 1.6 °C 1037.2 hPa North 4.7 km/h 11.3 km/h 81% 0.0 mm 69 W/m2
12:58 4.7 °C 1.7 °C 1037.2 hPa NNW 6.4 km/h 14.5 km/h 81% 0.0 mm 62 W/m2
13:03 4.8 °C 1.8 °C 1037.2 hPa NW 6.4 km/h 16.1 km/h 81% 0.0 mm 56 W/m2
13:08 4.8 °C 1.8 °C 1037.6 hPa NW 1.4 km/h 4.8 km/h 81% 0.0 mm 69 W/m2
13:13 4.8 °C 1.8 °C 1037.6 hPa Calm   12.9 km/h 81% 0.0 mm 91 W/m2
13:18 4.9 °C 1.9 °C 1037.6 hPa North 1.4 km/h 6.4 km/h 81% 0.0 mm 178 W/m2
13:23 5 °C 2.2 °C 1037.6 hPa Calm   4.8 km/h 82% 0.0 mm 139 W/m2
13:28 5.2 °C 2.2 °C 1037.6 hPa North 6.4 km/h 14.5 km/h 81% 0.0 mm 53 W/m2
13:33 5.1 °C 1.9 °C 1037.9 hPa Calm   11.3 km/h 80% 0.0 mm 81 W/m2
13:38 5.1 °C 1.8 °C 1037.6 hPa NNE 1.4 km/h 8 km/h 79% 0.0 mm 72 W/m2
13:43 5 °C 1.8 °C 1037.6 hPa Calm   6.4 km/h 80% 0.0 mm 90 W/m2
13:48 5 °C 1.8 °C 1037.9 hPa Calm   6.4 km/h 80% 0.0 mm 102 W/m2
13:53 5.1 °C 2.1 °C 1037.9 hPa NNE 4.7 km/h 4.8 km/h 81% 0.0 mm 91 W/m2
13:58 5.1 °C 2.1 °C 1037.9 hPa Calm   1.6 km/h 81% 0.0 mm 67 W/m2
14:03 5.1 °C 2.1 °C 1037.9 hPa Calm     81% 0.0 mm 90 W/m2
14:08 5.2 °C 2.2 °C 1037.9 hPa Calm   1.6 km/h 81% 0.0 mm 63 W/m2
14:13 5.2 °C 2.2 °C 1037.9 hPa Calm   3.2 km/h 81% 0.0 mm 56 W/m2
14:18 5.2 °C 2.2 °C 1037.9 hPa ENE 3.2 km/h 6.4 km/h 81% 0.0 mm 53 W/m2
14:23 5.2 °C 2.2 °C 1037.9 hPa NE 7.9 km/h 12.9 km/h 81% 0.0 mm 58 W/m2
14:28 5.2 °C 2.2 °C 1037.9 hPa NE 1.4 km/h 1.6 km/h 81% 0.0 mm 42 W/m2
14:33 5.1 °C 2.1 °C 1037.9 hPa Calm   12.9 km/h 81% 0.0 mm 39 W/m2
14:38 5.1 °C 2.1 °C 1037.9 hPa Calm   6.4 km/h 81% 0.0 mm 37 W/m2
14:43 5 °C 1.8 °C 1037.9 hPa North 3.2 km/h 8 km/h 80% 0.0 mm 54 W/m2
14:48 5.1 °C 2.1 °C 1037.9 hPa Calm   4.8 km/h 81% 0.0 mm 60 W/m2
14:53 5.1 °C 2.1 °C 1037.9 hPa Calm   3.2 km/h 81% 0.0 mm 49 W/m2
14:58 5.1 °C 1.9 °C 1037.9 hPa Calm   4.8 km/h 80% 0.0 mm 56 W/m2
15:03 5.1 °C 2.1 °C 1037.9 hPa Calm     81% 0.0 mm 69 W/m2
15:08 5.1 °C 2.1 °C 1037.9 hPa Calm   4.8 km/h 81% 0.0 mm 70 W/m2
15:13 5.2 °C 2.2 °C 1037.9 hPa Calm     81% 0.0 mm 46 W/m2
15:18 5.2 °C 2.2 °C 1037.9 hPa Calm     81% 0.0 mm 40 W/m2
15:23 5.2 °C 2.2 °C 1037.9 hPa Calm     81% 0.0 mm 67 W/m2
15:28 5.2 °C 2.2 °C 1037.9 hPa Calm     81% 0.0 mm 56 W/m2
15:33 5.2 °C 2 °C 1038.3 hPa NE 1.4 km/h 9.7 km/h 80% 0.0 mm 46 W/m2
15:38 5.2 °C 1.9 °C 1038.3 hPa Calm     79% 0.0 mm 42 W/m2
15:43 5.2 °C 1.9 °C 1038.3 hPa NW 3.2 km/h 6.4 km/h 79% 0.0 mm 35 W/m2
15:48 5.2 °C 1.9 °C 1038.3 hPa Calm   4.8 km/h 79% 0.0 mm 42 W/m2
15:53 5.2 °C 1.9 °C 1038.3 hPa NW 1.4 km/h 4.8 km/h 79% 0.0 mm 46 W/m2
15:58 5.2 °C 1.9 °C 1038.6 hPa Calm   1.6 km/h 79% 0.0 mm 35 W/m2
16:03 5.2 °C 1.9 °C 1038.6 hPa NNE 1.4 km/h 4.8 km/h 79% 0.0 mm 35 W/m2
16:08 5.1 °C 1.8 °C 1038.6 hPa NNE 6.4 km/h 6.4 km/h 79% 0.0 mm 40 W/m2
16:13 5.1 °C 1.8 °C 1038.6 hPa Calm   4.8 km/h 79% 0.0 mm 30 W/m2
16:19 5.1 °C 1.8 °C 1038.9 hPa Calm   6.4 km/h 79% 0.0 mm 25 W/m2
16:24 5.1 °C 1.8 °C 1038.9 hPa Calm   8 km/h 79% 0.0 mm 21 W/m2
16:29 5.1 °C 1.8 °C 1038.9 hPa NNE 1.4 km/h 6.4 km/h 79% 0.0 mm 25 W/m2
16:34 5.1 °C 1.8 °C 1038.9 hPa NNE 7.9 km/h 9.7 km/h 79% 0.0 mm 26 W/m2
16:39 5.1 °C 1.8 °C 1038.9 hPa North 6.4 km/h 14.5 km/h 79% 0.0 mm 19 W/m2
16:44 5.1 °C 1.8 °C 1039.3 hPa NE 3.2 km/h 4.8 km/h 79% 0.0 mm 19 W/m2
16:49 5.1 °C 1.9 °C 1039.3 hPa Calm   9.7 km/h 80% 0.0 mm 12 W/m2
16:54 5.1 °C 1.9 °C 1039.3 hPa North 1.4 km/h 3.2 km/h 80% 0.0 mm 5 W/m2
16:59 5 °C 1.8 °C 1039.6 hPa NNE 3.2 km/h 17.7 km/h 80% 0.0 mm 0 W/m2
17:04 4.9 °C 1.9 °C 1039.6 hPa NE 9.7 km/h 14.5 km/h 81% 0.0 mm 0 W/m2
17:09 4.7 °C 2.1 °C 1039.6 hPa NNE 6.4 km/h 6.4 km/h 83% 0.0 mm 0 W/m2
17:14 4.7 °C 2.1 °C 1039.6 hPa Calm   1.6 km/h 83% 0.0 mm 0 W/m2
17:19 4.6 °C 2.1 °C 1040.0 hPa Calm   9.7 km/h 84% 0.0 mm 0 W/m2
17:24 4.5 °C 2 °C 1040.0 hPa NNE 6.4 km/h 6.4 km/h 84% 0.0 mm 0 W/m2
17:29 4.5 °C 2 °C 1040.0 hPa Calm   6.4 km/h 84% 0.0 mm 0 W/m2
17:34 4.4 °C 2.1 °C 1040.0 hPa Calm   4.8 km/h 85% 0.0 mm 0 W/m2
17:39 4.4 °C 2.1 °C 1040.0 hPa NW 6.4 km/h 6.4 km/h 85% 0.0 mm 0 W/m2
17:44 4.3 °C 2 °C 1040.3 hPa NNE 3.2 km/h 3.2 km/h 85% 0.0 mm 0 W/m2
17:49 4.3 °C 2 °C 1040.3 hPa North 3.2 km/h 6.4 km/h 85% 0.0 mm 0 W/m2
17:54 4.3 °C 2 °C 1040.3 hPa NNW 3.2 km/h 14.5 km/h 85% 0.0 mm 0 W/m2
17:59 4.3 °C 2 °C 1040.3 hPa NNE 7.9 km/h 8 km/h 85% 0.0 mm 0 W/m2
18:04 4.3 °C 2 °C 1040.6 hPa Calm   14.5 km/h 85% 0.0 mm 0 W/m2
18:09 4.3 °C 2 °C 1040.6 hPa Calm   8 km/h 85% 0.0 mm 0 W/m2
18:14 4.2 °C 2.1 °C 1040.6 hPa Calm   4.8 km/h 86% 0.0 mm 0 W/m2
18:19 4.2 °C 2.1 °C 1040.6 hPa Calm   8 km/h 86% 0.0 mm 0 W/m2
18:24 4.2 °C 2.1 °C 1041.0 hPa NNE 7.9 km/h 16.1 km/h 86% 0.0 mm 0 W/m2
18:29 4.2 °C 2.1 °C 1041.0 hPa North 4.7 km/h 16.1 km/h 86% 0.0 mm 0 W/m2
18:34 4.2 °C 2.2 °C 1041.0 hPa Calm   1.6 km/h 87% 0.0 mm 0 W/m2
18:39 4.1 °C 2.1 °C 1041.0 hPa Calm   16.1 km/h 87% 0.0 mm 0 W/m2
18:44 4.1 °C 2.3 °C 1041.3 hPa NNE 1.4 km/h 6.4 km/h 88% 0.0 mm 0 W/m2
18:49 4 °C 2.2 °C 1041.3 hPa Calm   12.9 km/h 88% 0.0 mm 0 W/m2
18:54 3.9 °C 2.3 °C 1041.3 hPa Calm     89% 0.0 mm 0 W/m2
18:59 3.9 °C 2.3 °C 1041.3 hPa Calm   4.8 km/h 89% 0.0 mm 0 W/m2
19:04 3.8 °C 2.2 °C 1041.3 hPa Calm     89% 0.0 mm 0 W/m2
19:09 3.8 °C 2.2 °C 1041.7 hPa Calm     89% 0.0 mm 0 W/m2
19:14 3.8 °C 2.2 °C 1041.7 hPa Calm   4.8 km/h 89% 0.0 mm 0 W/m2
19:19 3.8 °C 2.2 °C 1041.7 hPa Calm   3.2 km/h 89% 0.0 mm 0 W/m2
19:24 3.8 °C 2.2 °C 1041.7 hPa NNW 3.2 km/h 4.8 km/h 89% 0.0 mm 0 W/m2
19:29 3.8 °C 2.2 °C 1041.7 hPa NNW 7.9 km/h 9.7 km/h 89% 0.0 mm 0 W/m2
19:34 3.9 °C 2.1 °C 1041.7 hPa Calm     88% 0.0 mm 0 W/m2
19:39 3.9 °C 2.1 °C 1041.7 hPa NW 1.4 km/h 1.6 km/h 88% 0.0 mm 0 W/m2
19:44 3.9 °C 1.9 °C 1042.0 hPa Calm     87% 0.0 mm 0 W/m2
19:50 3.9 °C 1.9 °C 1042.0 hPa Calm     87% 0.0 mm 0 W/m2
19:55 3.9 °C 1.9 °C 1042.0 hPa Calm   3.2 km/h 87% 0.0 mm 0 W/m2
20:00 3.9 °C 1.9 °C 1042.3 hPa Calm     87% 0.0 mm 0 W/m2
20:05 3.9 °C 1.9 °C 1042.0 hPa Calm   4.8 km/h 87% 0.0 mm 0 W/m2
20:10 3.9 °C 1.9 °C 1042.3 hPa Calm   1.6 km/h 87% 0.0 mm 0 W/m2
20:15 3.8 °C 1.8 °C 1042.3 hPa Calm   6.4 km/h 87% 0.0 mm 0 W/m2
20:20 3.8 °C 1.8 °C 1042.3 hPa Calm   1.6 km/h 87% 0.0 mm 0 W/m2
20:25 3.8 °C 1.8 °C 1042.3 hPa Calm   1.6 km/h 87% 0.0 mm 0 W/m2
20:30 3.8 °C 1.8 °C 1042.3 hPa Calm     87% 0.0 mm 0 W/m2
20:35 3.8 °C 1.8 °C 1042.3 hPa Calm   1.6 km/h 87% 0.0 mm 0 W/m2
20:40 3.8 °C 1.8 °C 1042.7 hPa Calm     87% 0.0 mm 0 W/m2
20:45 3.8 °C 1.8 °C 1042.7 hPa Calm     87% 0.0 mm 0 W/m2
20:50 3.9 °C 2.1 °C 1042.7 hPa Calm   4.8 km/h 88% 0.0 mm 0 W/m2
20:55 3.9 °C 1.9 °C 1042.7 hPa Calm     87% 0.0 mm 0 W/m2
21:00 3.9 °C 2.1 °C 1042.7 hPa Calm   1.6 km/h 88% 0.0 mm 0 W/m2
21:05 4 °C 2 °C 1042.7 hPa Calm   12.9 km/h 87% 0.0 mm 0 W/m2
21:10 4 °C 2 °C 1042.7 hPa Calm     87% 0.0 mm 0 W/m2
21:15 3.9 °C 1.9 °C 1042.7 hPa Calm   3.2 km/h 87% 0.0 mm 0 W/m2
21:20 4 °C 2 °C 1043.0 hPa Calm   4.8 km/h 87% 0.0 mm 0 W/m2
21:25 3.9 °C 1.9 °C 1043.0 hPa Calm     87% 0.0 mm 0 W/m2
21:30 3.9 °C 1.9 °C 1043.0 hPa Calm   4.8 km/h 87% 0.0 mm 0 W/m2
21:35 3.9 °C 1.9 °C 1043.0 hPa Calm   6.4 km/h 87% 0.0 mm 0 W/m2
21:40 3.9 °C 1.9 °C 1043.0 hPa Calm   3.2 km/h 87% 0.0 mm 0 W/m2
21:45 3.8 °C 1.8 °C 1043.0 hPa Calm     87% 0.0 mm 0 W/m2
21:50 3.9 °C 2.1 °C 1043.3 hPa Calm     88% 0.0 mm 0 W/m2
21:55 3.9 °C 2.1 °C 1043.3 hPa Calm   4.8 km/h 88% 0.0 mm 0 W/m2
22:00 3.9 °C 2.1 °C 1043.3 hPa NE 1.4 km/h 12.9 km/h 88% 0.0 mm 0 W/m2
22:05 4 °C 2.2 °C 1043.3 hPa NNW 14.5 km/h 14.5 km/h 88% 0.0 mm 0 W/m2
22:10 4 °C 2 °C 1043.3 hPa North 3.2 km/h 12.9 km/h 87% 0.0 mm 0 W/m2
22:15 4 °C 2 °C 1043.3 hPa Calm   4.8 km/h 87% 0.0 mm 0 W/m2
22:20 4 °C 2 °C 1043.3 hPa North 1.4 km/h 8 km/h 87% 0.0 mm 0 W/m2
22:25 4 °C 2.2 °C 1043.3 hPa Calm   9.7 km/h 88% 0.0 mm 0 W/m2
22:30 4 °C 2.2 °C 1043.3 hPa NNW 4.7 km/h 12.9 km/h 88% 0.0 mm 0 W/m2
22:35 4 °C 2.2 °C 1043.3 hPa Calm   8 km/h 88% 0.0 mm 0 W/m2
22:40 4 °C 2.2 °C 1043.3 hPa NW 4.7 km/h 12.9 km/h 88% 0.0 mm 0 W/m2
22:45 4 °C 2 °C 1043.3 hPa Calm   9.7 km/h 87% 0.0 mm 0 W/m2
22:51 4 °C 2.2 °C 1043.3 hPa Calm   1.6 km/h 88% 0.0 mm 0 W/m2
22:56 4 °C 2.2 °C 1043.7 hPa NNW 4.7 km/h 11.3 km/h 88% 0.0 mm 0 W/m2
23:01 4 °C 2 °C 1043.7 hPa North 4.7 km/h 8 km/h 87% 0.0 mm 0 W/m2
23:06 4 °C 2.2 °C 1044.0 hPa Calm   9.7 km/h 88% 0.0 mm 0 W/m2
23:11 4 °C 2.2 °C 1044.0 hPa Calm   1.6 km/h 88% 0.0 mm 0 W/m2
23:16 4 °C 2.2 °C 1044.0 hPa Calm   1.6 km/h 88% 0.0 mm 0 W/m2
23:21 3.9 °C 2.1 °C 1044.0 hPa Calm   12.9 km/h 88% 0.0 mm 0 W/m2
23:26 3.9 °C 2.1 °C 1044.0 hPa Calm   3.2 km/h 88% 0.0 mm 0 W/m2
23:31 3.9 °C 2.1 °C 1044.0 hPa Calm   9.7 km/h 88% 0.0 mm 0 W/m2
23:36 3.9 °C 2.1 °C 1044.0 hPa Calm   1.6 km/h 88% 0.0 mm 0 W/m2
23:41 3.9 °C 2.1 °C 1044.4 hPa Calm   1.6 km/h 88% 0.0 mm 0 W/m2
23:46 3.9 °C 2.1 °C 1044.4 hPa Calm   9.7 km/h 88% 0.0 mm 0 W/m2
23:51 3.9 °C 2.1 °C 1044.4 hPa Calm   12.9 km/h 88% 0.0 mm 0 W/m2
23:56 3.9 °C 2.1 °C 1044.4 hPa Calm   4.8 km/h 88% 0.0 mm 0 W/m2
Juneau County Weather
Compliments of Weather Underground - 4 mb